createdAt,value
2023-03-21T00:00:19.324Z,0.00
2023-03-21T00:01:19.505Z,0.00
2023-03-21T00:02:19.325Z,0.00
2023-03-21T00:03:19.378Z,0.00
2023-03-21T00:04:19.279Z,0.00
2023-03-21T00:05:19.301Z,0.00
2023-03-21T00:06:19.559Z,0.00
2023-03-21T00:07:19.268Z,0.00
2023-03-21T00:08:19.303Z,0.00
2023-03-21T00:09:19.335Z,0.00
2023-03-21T00:10:29.766Z,0.00
2023-03-21T00:11:19.209Z,0.00
2023-03-21T00:12:19.292Z,0.00
2023-03-21T00:13:19.248Z,0.00
2023-03-21T00:14:19.237Z,0.00
2023-03-21T00:15:22.575Z,0.00
2023-03-21T00:16:23.108Z,0.00
2023-03-21T00:34:15.217Z,0.00
2023-03-21T00:34:27.090Z,0.00
2023-03-21T00:35:53.696Z,0.00
2023-03-21T00:36:20.190Z,0.00
2023-03-21T00:37:20.206Z,0.00
2023-03-21T00:38:20.174Z,0.00
2023-03-21T00:39:20.164Z,0.00
2023-03-21T00:40:27.916Z,0.00
2023-03-21T00:41:35.042Z,0.00
2023-03-21T00:42:20.104Z,0.00
2023-03-21T00:43:20.121Z,0.00
2023-03-21T00:44:20.084Z,0.00
2023-03-21T00:45:20.097Z,0.00
2023-03-21T00:47:20.325Z,0.00
2023-03-21T00:48:21.340Z,0.00
2023-03-21T00:49:21.301Z,0.00
2023-03-21T00:50:21.302Z,0.00
2023-03-21T00:51:21.271Z,0.00
2023-03-21T00:52:30.789Z,0.00
2023-03-21T00:53:21.260Z,0.00
2023-03-21T00:54:21.232Z,0.00
2023-03-21T00:55:21.201Z,0.00
2023-03-21T00:56:21.230Z,0.00
2023-03-21T00:57:29.347Z,0.00
2023-03-21T00:58:21.184Z,0.00
2023-03-21T00:59:21.201Z,0.00
2023-03-21T01:00:21.149Z,0.00
2023-03-21T01:01:21.160Z,0.00
2023-03-21T01:02:21.230Z,0.00
2023-03-21T01:03:25.362Z,0.00
2023-03-21T01:04:21.229Z,0.00
2023-03-21T01:05:21.098Z,0.00
2023-03-21T01:06:21.105Z,0.00
2023-03-21T01:07:21.098Z,0.00
2023-03-21T01:08:26.854Z,0.00
2023-03-21T01:09:21.062Z,0.00
2023-03-21T01:10:21.070Z,0.00
2023-03-21T01:11:21.041Z,0.00
2023-03-21T01:12:21.063Z,0.00
2023-03-21T01:13:21.009Z,0.00
2023-03-21T01:14:23.541Z,0.00
2023-03-21T01:15:20.993Z,0.00
2023-03-21T01:16:21.072Z,0.00
2023-03-21T01:17:20.967Z,0.00
2023-03-21T01:18:20.986Z,0.00
2023-03-21T01:19:27.426Z,0.00
2023-03-21T01:20:20.942Z,0.00
2023-03-21T01:21:20.925Z,0.00
2023-03-21T01:22:20.937Z,0.00
2023-03-21T01:23:20.931Z,0.00
2023-03-21T01:24:20.971Z,0.00
2023-03-21T01:25:22.659Z,0.00
2023-03-21T01:26:20.878Z,0.00
2023-03-21T01:27:20.889Z,0.00
2023-03-21T01:28:20.854Z,0.00
2023-03-21T01:29:20.833Z,0.00
2023-03-21T01:30:24.050Z,0.00
2023-03-21T01:31:20.841Z,0.00
2023-03-21T01:32:20.850Z,0.00
2023-03-21T01:33:20.863Z,0.00
2023-03-21T01:34:20.812Z,0.00
2023-03-21T01:35:20.789Z,0.00
2023-03-21T01:36:23.182Z,0.00
2023-03-21T01:37:20.776Z,0.00
2023-03-21T01:38:20.769Z,0.00
2023-03-21T01:39:20.760Z,0.00
2023-03-21T01:40:20.751Z,0.00
2023-03-21T01:41:20.709Z,0.00
2023-03-21T01:42:20.740Z,0.00
2023-03-21T01:43:20.697Z,0.00
2023-03-21T01:44:20.744Z,0.00
2023-03-21T01:45:20.689Z,0.00
2023-03-21T01:46:20.780Z,0.00
2023-03-21T01:47:20.641Z,0.00
2023-03-21T01:48:20.669Z,0.00
2023-03-21T01:49:20.674Z,0.00
2023-03-21T01:50:20.645Z,0.00
2023-03-21T01:51:20.627Z,0.00
2023-03-21T01:52:35.424Z,0.00
2023-03-21T01:53:20.582Z,0.00
2023-03-21T01:54:20.599Z,0.00
2023-03-21T01:55:20.562Z,0.00
2023-03-21T01:56:20.581Z,0.00
2023-03-21T01:57:20.984Z,0.00
2023-03-21T01:58:20.544Z,0.00
2023-03-21T01:59:20.525Z,0.00
2023-03-21T02:00:20.519Z,0.00
2023-03-21T02:01:20.516Z,0.00
2023-03-21T02:02:20.543Z,0.00
2023-03-21T02:03:33.340Z,0.00
2023-03-21T02:04:20.527Z,0.00
2023-03-21T02:05:20.446Z,0.00
2023-03-21T02:06:20.467Z,0.00
2023-03-21T02:07:20.489Z,0.00
2023-03-21T02:08:22.271Z,0.00
2023-03-21T02:09:20.407Z,0.00
2023-03-21T02:10:20.425Z,0.00
2023-03-21T02:11:20.400Z,0.00
2023-03-21T02:12:20.391Z,0.00
2023-03-21T02:13:20.401Z,0.00
2023-03-21T02:14:29.096Z,0.00
2023-03-21T02:15:20.354Z,0.00
2023-03-21T02:16:20.468Z,0.00
2023-03-21T02:17:20.332Z,0.00
2023-03-21T02:18:20.341Z,0.00
2023-03-21T02:19:29.597Z,0.00
2023-03-21T02:20:20.346Z,0.00
2023-03-21T02:21:20.283Z,0.00
2023-03-21T02:22:20.405Z,0.00
2023-03-21T02:23:20.257Z,0.00
2023-03-21T02:24:20.267Z,0.00
2023-03-21T02:25:24.762Z,0.00
2023-03-21T02:26:20.249Z,0.00
2023-03-21T02:27:20.239Z,0.00
2023-03-21T02:28:20.226Z,0.00
2023-03-21T02:29:20.201Z,0.00
2023-03-21T02:30:29.460Z,0.00
2023-03-21T02:31:20.251Z,0.00
2023-03-21T02:32:31.523Z,0.00
2023-03-21T02:33:20.174Z,0.00
2023-03-21T02:34:20.157Z,0.00
2023-03-21T02:35:20.148Z,0.00
2023-03-21T02:36:20.173Z,0.00
2023-03-21T02:37:23.591Z,0.00
2023-03-21T02:38:20.135Z,0.00
2023-03-21T02:39:20.089Z,0.00
2023-03-21T02:40:20.096Z,0.00
2023-03-21T02:41:20.191Z,0.00
2023-03-21T02:42:20.100Z,0.00
2023-03-21T02:43:23.312Z,0.00
2023-03-21T02:44:20.056Z,0.00
2023-03-21T02:45:20.025Z,0.00
2023-03-21T02:46:21.475Z,0.00
2023-03-21T02:47:19.993Z,0.00
2023-03-21T02:48:29.341Z,0.00
2023-03-21T02:49:20.015Z,0.00
2023-03-21T02:50:19.990Z,0.00
2023-03-21T02:51:19.988Z,0.00
2023-03-21T02:52:35.535Z,0.00
2023-03-21T02:53:19.943Z,0.00
2023-03-21T02:54:34.882Z,0.00
2023-03-21T02:55:19.927Z,0.00
2023-03-21T02:56:19.928Z,0.00
2023-03-21T02:57:19.917Z,0.00
2023-03-21T02:58:19.887Z,0.00
2023-03-21T02:59:19.920Z,0.00
2023-03-21T03:00:19.874Z,0.00
2023-03-21T03:01:19.861Z,0.00
2023-03-21T03:02:19.863Z,0.00
2023-03-21T03:03:33.044Z,0.00
2023-03-21T03:04:19.869Z,0.00
2023-03-21T03:05:21.916Z,0.00
2023-03-21T03:06:19.837Z,0.00
2023-03-21T03:07:19.796Z,0.00
2023-03-21T03:08:24.044Z,0.00
2023-03-21T03:09:19.807Z,0.00
2023-03-21T03:10:19.773Z,0.00
2023-03-21T03:11:19.751Z,0.00
2023-03-21T03:12:19.746Z,0.00
2023-03-21T03:13:19.723Z,0.00
2023-03-21T03:15:19.727Z,0.00
2023-03-21T03:16:19.703Z,0.00
2023-03-21T03:17:19.719Z,0.00
2023-03-21T03:18:19.696Z,0.00
2023-03-21T03:19:19.668Z,0.00
2023-03-21T03:20:19.674Z,0.00
2023-03-21T03:21:19.666Z,0.00
2023-03-21T03:22:19.652Z,0.00
2023-03-21T03:23:19.768Z,0.00
2023-03-21T03:24:19.620Z,0.00
2023-03-21T03:25:29.826Z,0.00
2023-03-21T03:26:19.658Z,0.00
2023-03-21T03:27:19.597Z,0.00
2023-03-21T03:28:19.594Z,0.00
2023-03-21T03:29:19.566Z,0.00
2023-03-21T03:30:19.605Z,0.00
2023-03-21T03:31:20.924Z,0.00
2023-03-21T03:32:19.552Z,0.00
2023-03-21T03:33:19.524Z,0.00
2023-03-21T03:34:19.513Z,0.00
2023-03-21T03:35:19.494Z,0.00
2023-03-21T03:36:31.132Z,0.00
2023-03-21T03:37:19.464Z,0.00
2023-03-21T03:38:19.482Z,0.00
2023-03-21T03:39:19.449Z,0.00
2023-03-21T03:40:19.446Z,0.00
2023-03-21T03:41:19.741Z,0.00
2023-03-21T03:42:28.153Z,0.00
2023-03-21T03:43:19.415Z,0.00
2023-03-21T03:44:19.436Z,0.00
2023-03-21T03:45:19.380Z,0.00
2023-03-21T03:46:19.448Z,0.00
2023-03-21T03:47:31.733Z,0.00
2023-03-21T03:48:19.423Z,0.00
2023-03-21T03:49:19.350Z,0.00
2023-03-21T03:50:19.343Z,0.00
2023-03-21T03:51:19.325Z,0.00
2023-03-21T03:52:19.349Z,0.00
2023-03-21T03:53:19.296Z,0.00
2023-03-21T03:54:19.302Z,0.00
2023-03-21T03:55:19.310Z,0.00
2023-03-21T03:56:19.315Z,0.00
2023-03-21T03:57:19.292Z,0.00
2023-03-21T03:58:23.784Z,0.00
2023-03-21T03:59:19.285Z,0.00
2023-03-21T04:00:19.285Z,0.00
2023-03-21T04:01:19.258Z,0.00
2023-03-21T04:02:19.375Z,0.00
2023-03-21T04:03:19.225Z,0.00
2023-03-21T04:04:19.241Z,0.00
2023-03-21T04:05:19.189Z,0.00
2023-03-21T04:06:19.171Z,0.00
2023-03-21T04:07:19.623Z,0.00
2023-03-21T04:08:19.251Z,0.00
2023-03-21T04:09:24.978Z,0.00
2023-03-21T04:10:19.223Z,0.00
2023-03-21T04:11:19.135Z,0.00
2023-03-21T04:12:19.132Z,0.00
2023-03-21T04:13:19.241Z,0.00
2023-03-21T04:14:19.103Z,0.00
2023-03-21T04:15:19.071Z,0.00
2023-03-21T04:16:19.147Z,0.00
2023-03-21T04:17:19.180Z,0.00
2023-03-21T04:18:19.078Z,0.00
2023-03-21T04:19:19.287Z,0.00
2023-03-21T04:20:30.282Z,0.00
2023-03-21T04:21:19.091Z,0.00
2023-03-21T04:22:19.026Z,0.00
2023-03-21T04:23:19.030Z,0.00
2023-03-21T04:24:19.285Z,0.00
2023-03-21T04:25:30.802Z,0.00
2023-03-21T04:26:19.200Z,0.00
2023-03-21T04:27:19.222Z,0.00
2023-03-21T04:28:19.072Z,0.00
2023-03-21T04:29:18.965Z,0.00
2023-03-21T04:30:19.018Z,0.00
2023-03-21T04:31:25.636Z,0.00
2023-03-21T04:32:19.064Z,0.00
2023-03-21T04:33:19.050Z,0.00
2023-03-21T04:34:18.888Z,0.00
2023-03-21T04:35:18.918Z,0.00
2023-03-21T04:36:19.134Z,0.00
2023-03-21T04:37:19.195Z,0.00
2023-03-21T04:38:19.187Z,0.00
2023-03-21T04:39:18.851Z,0.00
2023-03-21T04:40:18.924Z,0.00
2023-03-21T04:41:18.913Z,0.00
2023-03-21T04:42:19.088Z,0.00
2023-03-21T04:43:18.769Z,0.00
2023-03-21T04:44:18.808Z,0.00
2023-03-21T04:45:18.751Z,0.00
2023-03-21T04:46:18.765Z,0.00
2023-03-21T04:47:18.736Z,0.00
2023-03-21T04:48:18.775Z,0.00
2023-03-21T04:49:18.731Z,0.00
2023-03-21T04:50:18.744Z,0.00
2023-03-21T04:51:18.707Z,0.00
2023-03-21T04:52:18.715Z,0.00
2023-03-21T04:53:18.731Z,0.00
2023-03-21T04:54:18.691Z,0.00
2023-03-21T04:55:18.637Z,0.00
2023-03-21T04:56:18.688Z,0.00
2023-03-21T04:57:18.690Z,0.00
2023-03-21T04:58:18.672Z,0.00
2023-03-21T04:59:18.633Z,0.00
2023-03-21T05:00:18.705Z,0.00
2023-03-21T05:01:18.703Z,1.00
2023-03-21T05:02:18.682Z,0.00
2023-03-21T05:03:18.588Z,0.00
2023-03-21T05:04:18.722Z,0.00
2023-03-21T05:05:18.555Z,0.00
2023-03-21T05:06:18.526Z,0.00
2023-03-21T05:07:18.508Z,1.00
2023-03-21T05:08:18.509Z,0.00
2023-03-21T05:09:18.515Z,0.00
2023-03-21T05:10:18.473Z,4.00
2023-03-21T05:11:18.454Z,2.00
2023-03-21T05:12:18.416Z,1.00
2023-03-21T05:13:18.392Z,1.00
2023-03-21T05:14:18.408Z,1.00
2023-03-21T05:15:18.368Z,2.00
2023-03-21T05:16:18.478Z,2.00
2023-03-21T05:17:18.385Z,3.00
2023-03-21T05:18:18.340Z,4.00
2023-03-21T05:19:18.341Z,5.00
2023-03-21T05:20:18.447Z,5.00
2023-03-21T05:21:18.487Z,6.00
2023-03-21T05:22:18.360Z,6.00
2023-03-21T05:23:18.337Z,7.00
2023-03-21T05:24:18.295Z,8.00
2023-03-21T05:25:18.352Z,9.00
2023-03-21T05:26:18.456Z,9.00
2023-03-21T05:27:18.389Z,11.00
2023-03-21T05:28:18.440Z,13.00
2023-03-21T05:29:18.269Z,15.00
2023-03-21T05:30:18.249Z,18.00
2023-03-21T05:31:18.292Z,22.00
2023-03-21T05:32:18.233Z,28.00
2023-03-21T05:33:18.441Z,29.00
2023-03-21T05:34:18.227Z,34.00
2023-03-21T05:35:18.402Z,42.00
2023-03-21T05:36:18.257Z,44.00
2023-03-21T05:37:18.222Z,50.00
2023-03-21T05:38:18.146Z,55.00
2023-03-21T05:39:18.253Z,60.00
2023-03-21T05:40:18.141Z,62.00
2023-03-21T05:41:19.270Z,50.00
2023-03-21T05:42:18.328Z,49.00
2023-03-21T05:43:18.189Z,62.00
2023-03-21T05:44:18.119Z,66.00
2023-03-21T05:45:18.138Z,74.00
2023-03-21T05:46:18.103Z,65.00
2023-03-21T05:47:18.095Z,92.00
2023-03-21T05:48:18.091Z,88.00
2023-03-21T05:49:18.086Z,86.00
2023-03-21T05:50:18.041Z,115.00
2023-03-21T05:51:18.022Z,122.00
2023-03-21T05:52:18.035Z,112.00
2023-03-21T05:53:17.975Z,135.00
2023-03-21T05:54:17.972Z,146.00
2023-03-21T05:55:17.958Z,156.00
2023-03-21T05:56:17.940Z,147.00
2023-03-21T05:57:17.940Z,170.00
2023-03-21T05:58:17.938Z,185.00
2023-03-21T05:59:17.912Z,181.00
2023-03-21T06:00:17.909Z,206.00
2023-03-21T06:01:17.911Z,209.00
2023-03-21T06:02:17.891Z,222.00
2023-03-21T06:03:17.873Z,217.00
2023-03-21T06:04:17.934Z,231.00
2023-03-21T06:05:17.869Z,258.00
2023-03-21T06:06:18.221Z,273.00
2023-03-21T06:07:17.832Z,247.00
2023-03-21T06:08:17.901Z,265.00
2023-03-21T06:09:17.961Z,267.00
2023-03-21T06:10:17.957Z,268.00
2023-03-21T06:11:17.832Z,313.00
2023-03-21T06:12:18.630Z,302.00
2023-03-21T06:13:17.821Z,362.00
2023-03-21T06:14:17.766Z,373.00
2023-03-21T06:15:17.768Z,402.00
2023-03-21T06:16:18.866Z,394.00
2023-03-21T06:17:17.737Z,377.00
2023-03-21T06:18:17.718Z,394.00
2023-03-21T06:19:17.739Z,372.00
2023-03-21T06:20:17.758Z,389.00
2023-03-21T06:21:17.793Z,409.00
2023-03-21T06:22:17.651Z,410.00
2023-03-21T06:23:17.679Z,378.00
2023-03-21T06:24:17.685Z,420.00
2023-03-21T06:25:17.663Z,392.00
2023-03-21T06:26:17.638Z,428.00
2023-03-21T06:27:17.612Z,450.00
2023-03-21T06:28:17.598Z,439.00
2023-03-21T06:29:17.715Z,447.00
2023-03-21T06:30:17.580Z,474.00
2023-03-21T06:31:17.668Z,489.00
2023-03-21T06:32:17.577Z,505.00
2023-03-21T06:33:17.584Z,520.00
2023-03-21T06:34:17.544Z,540.00
2023-03-21T06:35:17.524Z,556.00
2023-03-21T06:36:17.523Z,553.00
2023-03-21T06:37:17.588Z,575.00
2023-03-21T06:38:17.541Z,646.00
2023-03-21T06:39:17.516Z,695.00
2023-03-21T06:40:17.485Z,677.00
2023-03-21T06:41:17.491Z,678.00
2023-03-21T06:42:17.443Z,703.00
2023-03-21T06:43:17.459Z,693.00
2023-03-21T06:44:17.440Z,676.00
2023-03-21T06:45:17.430Z,678.00
2023-03-21T06:46:17.574Z,672.00
2023-03-21T06:48:28.338Z,696.00
2023-03-21T06:49:29.317Z,673.00
2023-03-21T06:50:29.341Z,706.00
2023-03-21T06:51:29.461Z,717.00
2023-03-21T06:52:29.263Z,752.00
2023-03-21T06:53:29.497Z,783.00
2023-03-21T06:54:29.490Z,793.00
2023-03-21T06:55:29.193Z,817.00
2023-03-21T06:56:29.150Z,837.00
2023-03-21T06:57:29.168Z,845.00
2023-03-21T06:58:29.152Z,851.00
2023-03-21T06:59:29.177Z,857.00
2023-03-21T07:00:29.165Z,842.00
2023-03-21T07:01:29.279Z,834.00
2023-03-21T07:02:29.189Z,841.00
2023-03-21T07:03:29.136Z,842.00
2023-03-21T07:04:29.088Z,856.00
2023-03-21T07:05:29.113Z,864.00
2023-03-21T07:06:29.057Z,885.00
2023-03-21T07:07:29.150Z,898.00
2023-03-21T07:08:29.087Z,903.00
2023-03-21T07:09:29.028Z,913.00
2023-03-21T07:10:29.048Z,896.00
2023-03-21T07:11:29.042Z,880.00
2023-03-21T07:12:28.984Z,853.00
2023-03-21T07:13:29.017Z,833.00
2023-03-21T07:14:28.983Z,824.00
2023-03-21T07:15:29.014Z,801.00
2023-03-21T07:16:28.990Z,729.00
2023-03-21T07:17:28.962Z,645.00
2023-03-21T07:18:29.018Z,616.00
2023-03-21T07:19:28.938Z,622.00
2023-03-21T07:20:29.009Z,660.00
2023-03-21T07:21:28.903Z,679.00
2023-03-21T07:22:28.890Z,654.00
2023-03-21T07:23:28.907Z,637.00
2023-03-21T07:24:28.866Z,612.00
2023-03-21T07:25:28.985Z,608.00
2023-03-21T07:26:28.877Z,606.00
2023-03-21T07:27:29.056Z,642.00
2023-03-21T07:28:29.021Z,633.00
2023-03-21T07:29:28.868Z,665.00
2023-03-21T07:30:29.113Z,688.00
2023-03-21T07:31:28.964Z,789.00
2023-03-21T07:32:28.813Z,871.00
2023-03-21T07:33:29.144Z,933.00
2023-03-21T07:34:28.940Z,972.00
2023-03-21T07:35:29.032Z,1020.00
2023-03-21T07:36:28.775Z,1028.00
2023-03-21T07:37:29.737Z,1025.00
2023-03-21T07:38:29.060Z,1028.00
2023-03-21T07:39:28.726Z,1033.00
2023-03-21T07:40:29.021Z,1019.00
2023-03-21T07:41:28.945Z,996.00
2023-03-21T07:42:29.317Z,980.00
2023-03-21T07:43:28.844Z,1020.00
2023-03-21T07:44:28.774Z,1071.00
2023-03-21T07:45:28.733Z,1130.00
2023-03-21T07:46:29.105Z,1141.00
2023-03-21T07:47:28.812Z,1102.00
2023-03-21T07:48:28.648Z,1102.00
2023-03-21T07:49:28.608Z,1105.00
2023-03-21T07:50:28.654Z,1149.00
2023-03-21T07:51:28.584Z,1168.00
2023-03-21T07:52:28.640Z,1200.00
2023-03-21T07:53:28.586Z,1241.00
2023-03-21T07:54:28.546Z,1280.00
2023-03-21T07:55:28.538Z,1326.00
2023-03-21T07:56:28.550Z,1376.00
2023-03-21T07:57:28.730Z,1418.00
2023-03-21T07:58:28.590Z,1482.00
2023-03-21T07:59:28.665Z,1508.00
2023-03-21T08:00:28.554Z,1539.00
2023-03-21T08:01:28.509Z,1554.00
2023-03-21T08:02:28.667Z,1578.00
2023-03-21T08:03:28.507Z,1548.00
2023-03-21T08:04:29.153Z,1504.00
2023-03-21T08:05:28.443Z,1405.00
2023-03-21T08:06:28.419Z,1368.00
2023-03-21T08:07:28.424Z,1408.00
2023-03-21T08:08:28.386Z,1482.00
2023-03-21T08:09:30.739Z,1502.00
2023-03-21T08:10:28.505Z,1564.00
2023-03-21T08:11:28.368Z,1602.00
2023-03-21T08:12:28.351Z,1646.00
2023-03-21T08:13:28.343Z,1701.00
2023-03-21T08:14:28.352Z,1717.00
2023-03-21T08:15:28.423Z,1742.00
2023-03-21T08:16:28.500Z,1758.00
2023-03-21T08:17:28.332Z,1810.00
2023-03-21T08:18:28.300Z,1884.00
2023-03-21T08:19:28.360Z,1961.00
2023-03-21T08:20:28.304Z,2051.00
2023-03-21T08:21:28.284Z,2120.00
2023-03-21T08:22:28.269Z,2201.00
2023-03-21T08:23:28.269Z,2261.00
2023-03-21T08:24:28.240Z,2242.00
2023-03-21T08:25:28.252Z,2202.00
2023-03-21T08:26:28.237Z,2150.00
2023-03-21T08:27:28.680Z,2180.00
2023-03-21T08:28:28.313Z,2169.00
2023-03-21T08:29:28.469Z,2142.00
2023-03-21T08:30:28.217Z,2143.00
2023-03-21T08:31:28.195Z,2172.00
2023-03-21T08:32:28.145Z,2196.00
2023-03-21T08:33:28.163Z,2186.00
2023-03-21T08:34:28.122Z,2179.00
2023-03-21T08:35:28.140Z,2153.00
2023-03-21T08:36:28.094Z,2103.00
2023-03-21T08:37:28.093Z,2050.00
2023-03-21T08:38:28.070Z,1964.00
2023-03-21T08:39:28.564Z,1989.00
2023-03-21T08:40:28.225Z,2026.00
2023-03-21T08:41:28.149Z,2041.00
2023-03-21T08:42:28.043Z,2080.00
2023-03-21T08:43:28.051Z,2138.00
2023-03-21T08:44:28.568Z,2161.00
2023-03-21T08:45:28.061Z,2174.00
2023-03-21T08:46:28.005Z,2146.00
2023-03-21T08:47:27.991Z,2185.00
2023-03-21T08:48:29.072Z,2206.00
2023-03-21T08:49:28.027Z,2185.00
2023-03-21T08:50:27.989Z,2271.00
2023-03-21T08:51:28.030Z,2294.00
2023-03-21T08:52:27.974Z,2218.00
2023-03-21T08:53:27.944Z,2249.00
2023-03-21T08:54:27.949Z,2256.00
2023-03-21T08:55:27.917Z,2283.00
2023-03-21T08:56:27.877Z,2288.00
2023-03-21T08:57:27.921Z,2299.00
2023-03-21T08:58:29.420Z,2339.00
2023-03-21T08:59:27.859Z,2405.00
2023-03-21T09:00:27.918Z,2465.00
2023-03-21T09:01:27.886Z,2528.00
2023-03-21T09:02:27.844Z,2558.00
2023-03-21T09:03:27.812Z,2493.00
2023-03-21T09:04:27.933Z,2554.00
2023-03-21T09:05:28.491Z,2595.00
2023-03-21T09:06:27.856Z,2536.00
2023-03-21T09:07:27.816Z,2488.00
2023-03-21T09:08:28.617Z,2683.00
2023-03-21T09:09:27.895Z,2971.00
2023-03-21T09:10:27.726Z,3265.00
2023-03-21T09:11:27.741Z,3492.00
2023-03-21T09:12:27.771Z,3612.00
2023-03-21T09:13:27.780Z,3746.00
2023-03-21T09:14:29.127Z,3791.00
2023-03-21T09:15:27.688Z,3996.00
2023-03-21T09:16:27.694Z,4024.00
2023-03-21T09:17:27.716Z,4036.00
2023-03-21T09:18:27.761Z,4186.00
2023-03-21T09:19:27.657Z,4040.00
2023-03-21T09:20:27.686Z,3913.00
2023-03-21T09:21:27.628Z,3715.00
2023-03-21T09:22:27.630Z,4017.00
2023-03-21T09:23:27.652Z,4221.00
2023-03-21T09:24:27.732Z,4277.00
2023-03-21T09:25:27.601Z,3983.00
2023-03-21T09:26:27.687Z,3553.00
2023-03-21T09:27:27.548Z,3261.00
2023-03-21T09:28:27.537Z,3034.00
2023-03-21T09:29:27.575Z,3035.00
2023-03-21T09:30:27.572Z,2962.00
2023-03-21T09:31:27.563Z,2735.00
2023-03-21T09:32:27.491Z,2583.00
2023-03-21T09:33:27.489Z,2386.00
2023-03-21T09:34:27.514Z,2378.00
2023-03-21T09:35:27.494Z,2340.00
2023-03-21T09:36:27.456Z,1975.00
2023-03-21T09:37:27.461Z,2018.00
2023-03-21T09:38:27.439Z,2373.00
2023-03-21T09:39:27.450Z,2391.00
2023-03-21T09:40:27.425Z,2756.00
2023-03-21T09:41:27.424Z,3153.00
2023-03-21T09:42:27.390Z,2752.00
2023-03-21T09:43:27.423Z,2643.00
2023-03-21T09:44:27.431Z,2334.00
2023-03-21T09:45:27.381Z,2062.00
2023-03-21T09:46:27.447Z,1556.00
2023-03-21T09:47:27.345Z,1466.00
2023-03-21T09:48:27.527Z,1384.00
2023-03-21T09:49:27.333Z,1454.00
2023-03-21T09:50:27.705Z,1609.00
2023-03-21T09:51:27.305Z,1784.00
2023-03-21T09:52:27.290Z,1426.00
2023-03-21T09:53:27.325Z,1866.00
2023-03-21T09:54:27.531Z,1948.00
2023-03-21T09:55:27.629Z,1994.00
2023-03-21T09:56:27.292Z,1887.00
2023-03-21T09:57:27.269Z,2161.00
2023-03-21T09:58:27.269Z,2319.00
2023-03-21T09:59:27.404Z,2143.00
2023-03-21T10:00:27.375Z,1944.00
2023-03-21T10:01:27.297Z,1988.00
2023-03-21T10:02:27.463Z,1995.00
2023-03-21T10:03:27.169Z,2037.00
2023-03-21T10:04:27.257Z,2076.00
2023-03-21T10:05:27.146Z,2150.00
2023-03-21T10:06:27.191Z,2035.00
2023-03-21T10:07:27.120Z,1955.00
2023-03-21T10:08:27.270Z,1511.00
2023-03-21T10:09:27.105Z,1478.00
2023-03-21T10:10:27.112Z,1339.00
2023-03-21T10:11:27.122Z,1161.00
2023-03-21T10:12:27.056Z,1148.00
2023-03-21T10:13:27.048Z,1537.00
2023-03-21T10:14:27.053Z,1376.00
2023-03-21T10:15:27.033Z,1308.00
2023-03-21T10:16:27.060Z,1233.00
2023-03-21T10:17:27.016Z,1598.00
2023-03-21T10:18:27.003Z,1831.00
2023-03-21T10:19:27.001Z,1534.00
2023-03-21T10:20:27.009Z,1460.00
2023-03-21T10:21:56.487Z,1858.00
2023-03-21T10:22:26.967Z,1778.00
2023-03-21T10:23:26.947Z,2270.00
2023-03-21T10:24:26.945Z,3219.00
2023-03-21T10:25:26.925Z,3928.00
2023-03-21T10:26:26.947Z,3959.00
2023-03-21T10:27:26.975Z,4266.00
2023-03-21T10:28:26.920Z,4456.00
2023-03-21T10:29:27.039Z,4543.00
2023-03-21T10:30:26.951Z,4717.00
2023-03-21T10:31:27.100Z,4816.00
2023-03-21T10:32:26.937Z,4825.00
2023-03-21T10:33:26.835Z,4487.00
2023-03-21T10:34:26.871Z,4047.00
2023-03-21T10:35:26.860Z,4132.00
2023-03-21T10:36:26.854Z,4399.00
2023-03-21T10:37:26.850Z,4340.00
2023-03-21T10:38:26.798Z,4927.00
2023-03-21T10:39:26.800Z,4502.00
2023-03-21T10:40:26.847Z,4783.00
2023-03-21T10:41:26.779Z,4568.00
2023-03-21T10:42:26.799Z,4434.00
2023-03-21T10:43:26.744Z,4671.00
2023-03-21T10:44:26.724Z,4349.00
2023-03-21T10:45:26.720Z,4031.00
2023-03-21T10:46:26.921Z,3985.00
2023-03-21T10:47:27.125Z,3929.00
2023-03-21T10:48:26.864Z,3648.00
2023-03-21T10:49:26.907Z,2954.00
2023-03-21T10:50:26.721Z,3388.00
2023-03-21T10:51:26.681Z,3569.00
2023-03-21T10:52:26.644Z,3721.00
2023-03-21T10:53:26.680Z,4029.00
2023-03-21T10:54:26.640Z,3927.00
2023-03-21T10:55:26.599Z,3428.00
2023-03-21T10:56:26.723Z,3499.00
2023-03-21T10:57:26.615Z,3680.00
2023-03-21T10:58:26.658Z,3921.00
2023-03-21T10:59:26.562Z,3430.00
2023-03-21T11:00:26.636Z,3154.00
2023-03-21T11:01:26.613Z,3034.00
2023-03-21T11:02:26.706Z,2974.00
2023-03-21T11:03:26.573Z,2755.00
2023-03-21T11:04:26.525Z,2440.00
2023-03-21T11:05:26.492Z,1876.00
2023-03-21T11:06:26.564Z,1816.00
2023-03-21T11:07:26.525Z,2013.00
2023-03-21T11:08:26.570Z,2349.00
2023-03-21T11:09:26.508Z,1791.00
2023-03-21T11:10:28.849Z,1860.00
2023-03-21T11:11:26.482Z,2240.00
2023-03-21T11:12:26.446Z,1896.00
2023-03-21T11:13:26.453Z,1759.00
2023-03-21T11:14:29.853Z,1650.00
2023-03-21T11:15:26.394Z,1528.00
2023-03-21T11:16:26.529Z,2091.00
2023-03-21T11:17:26.355Z,2281.00
2023-03-21T11:18:26.391Z,2551.00
2023-03-21T11:19:26.397Z,2463.00
2023-03-21T11:20:26.340Z,2317.00
2023-03-21T11:21:26.330Z,2482.00
2023-03-21T11:22:26.370Z,2014.00
2023-03-21T11:23:26.322Z,2057.00
2023-03-21T11:24:26.388Z,2043.00
2023-03-21T11:25:26.319Z,2120.00
2023-03-21T11:26:26.278Z,2146.00
2023-03-21T11:27:26.261Z,2286.00
2023-03-21T11:28:26.266Z,2191.00
2023-03-21T11:29:26.267Z,2095.00
2023-03-21T11:30:26.289Z,2085.00
2023-03-21T11:31:26.516Z,2029.00
2023-03-21T11:32:26.511Z,1978.00
2023-03-21T11:33:26.519Z,1882.00
2023-03-21T11:34:26.228Z,1868.00
2023-03-21T11:35:26.186Z,1996.00
2023-03-21T11:36:26.228Z,1725.00
2023-03-21T11:37:26.194Z,1593.00
2023-03-21T11:38:26.164Z,1727.00
2023-03-21T11:39:26.153Z,1628.00
2023-03-21T11:40:26.201Z,1927.00
2023-03-21T11:41:26.108Z,2165.00
2023-03-21T11:42:26.127Z,2114.00
2023-03-21T11:43:26.107Z,2145.00
2023-03-21T11:44:26.221Z,2015.00
2023-03-21T11:45:26.216Z,1475.00
2023-03-21T11:46:26.156Z,2520.00
2023-03-21T11:47:26.052Z,2539.00
2023-03-21T11:48:26.087Z,2663.00
2023-03-21T11:49:26.064Z,2948.00
2023-03-21T11:50:26.030Z,2971.00
2023-03-21T11:51:26.058Z,2669.00
2023-03-21T11:52:26.069Z,2652.00
2023-03-21T11:53:26.059Z,3124.00
2023-03-21T11:54:26.082Z,3285.00
2023-03-21T11:55:25.967Z,3583.00
2023-03-21T11:56:26.027Z,3622.00
2023-03-21T11:57:25.993Z,3627.00
2023-03-21T11:58:26.110Z,3724.00
2023-03-21T11:59:25.932Z,3816.00
2023-03-21T12:00:26.146Z,4065.00
2023-03-21T12:01:25.905Z,4241.00
2023-03-21T12:02:25.963Z,4546.00
2023-03-21T12:03:27.339Z,4421.00
2023-03-21T12:04:25.961Z,5053.00
2023-03-21T12:05:25.858Z,5087.00
2023-03-21T12:06:26.064Z,5201.00
2023-03-21T12:07:25.853Z,5437.00
2023-03-21T12:08:25.852Z,5313.00
2023-03-21T12:09:25.854Z,6167.00
2023-03-21T12:10:26.034Z,5522.00
2023-03-21T12:11:25.918Z,7503.00
2023-03-21T12:12:37.979Z,6795.00
2023-03-21T12:13:25.837Z,7199.00
2023-03-21T12:14:25.777Z,6715.00
2023-03-21T12:15:25.791Z,8321.00
2023-03-21T12:16:26.031Z,6536.00
2023-03-21T12:17:26.548Z,6046.00
2023-03-21T12:18:25.906Z,6229.00
2023-03-21T12:19:25.923Z,5683.00
2023-03-21T12:20:25.773Z,5765.00
2023-03-21T12:21:25.706Z,5789.00
2023-03-21T12:22:25.694Z,5618.00
2023-03-21T12:23:27.021Z,5426.00
2023-03-21T12:24:25.730Z,5417.00
2023-03-21T12:25:25.775Z,5596.00
2023-03-21T12:26:25.737Z,5321.00
2023-03-21T12:27:25.732Z,5305.00
2023-03-21T12:28:32.595Z,5235.00
2023-03-21T12:29:26.205Z,5946.00
2023-03-21T12:30:25.693Z,6440.00
2023-03-21T12:31:25.939Z,5576.00
2023-03-21T12:32:25.955Z,4951.00
2023-03-21T12:33:25.551Z,4732.00
2023-03-21T12:34:25.575Z,4689.00
2023-03-21T12:35:25.552Z,4770.00
2023-03-21T12:36:25.551Z,4702.00
2023-03-21T12:37:25.503Z,4714.00
2023-03-21T12:38:25.502Z,4881.00
2023-03-21T12:39:25.510Z,4865.00
2023-03-21T12:40:25.556Z,4926.00
2023-03-21T12:41:25.469Z,4933.00
2023-03-21T12:42:25.492Z,5446.00
2023-03-21T12:43:25.572Z,5582.00
2023-03-21T12:44:25.517Z,4794.00
2023-03-21T12:45:26.119Z,4184.00
2023-03-21T12:46:25.589Z,3865.00
2023-03-21T12:47:25.412Z,4152.00
2023-03-21T12:48:25.479Z,5983.00
2023-03-21T12:49:33.637Z,5587.00
2023-03-21T12:50:25.382Z,5008.00
2023-03-21T12:51:25.382Z,4868.00
2023-03-21T12:52:25.475Z,5368.00
2023-03-21T12:53:25.394Z,5378.00
2023-03-21T12:54:25.508Z,5158.00
2023-03-21T12:55:25.326Z,4866.00
2023-03-21T12:56:25.356Z,4647.00
2023-03-21T12:57:25.309Z,4555.00